Date,TemperatureHighF,TemperatureAvgF,TemperatureLowF,DewpointHighF,DewpointAvgF,DewpointLowF,HumidityHigh,HumidityAvg,HumidityLow,PressureMaxIn,PressureMinIn,WindSpeedMaxMPH,WindSpeedAvgMPH,GustSpeedMaxMPH,PrecipitationSumIn
2013-9-1,89.8,80.3,74.9,79.9,75.4,72.3,96,86,68,29.99,29.91,19,2,24,0.31
2013-9-2,87.9,78.9,75.4,79.8,75.3,72.4,95,89,71,30.03,29.92,11,2,16,0.24
2013-9-3,88.6,80.5,74.2,79.5,75.2,72.7,96,85,64,30.02,29.92,13,2,16,0.00
2013-9-4,92.7,79.5,74.1,80.1,75.7,70.7,94,89,64,30.05,29.93,20,2,26,0.44
2013-9-5,94.4,82.4,75.8,81.4,76.2,72.5,97,83,53,30.06,29.96,8,3,14,0.00
2013-9-6,93.5,82.5,73.9,80.1,76.3,71.6,95,83,59,30.03,29.89,27,3,30,0.55
2013-9-7,90.9,78.7,73.4,80.7,74.4,71.7,95,87,63,29.98,29.88,16,4,20,0.92
2013-9-8,88.2,77.9,72.2,77.2,73.5,70.5,96,87,63,29.94,29.84,15,3,17,0.72
2013-9-9,92.5,81.3,74.3,78.5,75.0,72.7,97,83,55,29.99,29.89,12,4,15,0.01
2013-9-10,92.2,81.2,75.1,78.1,74.7,72.6,94,81,57,30.02,29.95,19,5,24,0.00
2013-9-11,88.7,79.3,74.7,81.2,75.1,72.9,95,87,67,30.02,29.95,16,4,23,0.45
2013-9-12,88.4,79.4,74.3,78.4,75.2,72.5,96,88,65,30.00,29.86,14,3,19,0.57
2013-9-13,88.3,80.0,72.9,76.6,73.8,72.0,97,83,63,29.90,29.80,12,2,13,0.01
2013-9-14,90.9,81.9,75.3,77.7,74.8,70.1,96,80,52,29.95,29.82,15,2,24,0.00
2013-9-15,93.1,79.7,74.9,79.0,74.8,71.1,95,86,60,30.05,29.92,18,3,40,0.51
2013-9-16,88.5,77.9,75.1,79.5,74.5,72.3,95,90,66,30.02,29.94,16,5,23,0.07
2013-9-17,89.3,76.4,73.6,79.3,74.1,71.9,97,93,69,30.01,29.90,19,4,26,2.70
2013-9-18,90.3,77.2,73.3,78.5,74.1,72.4,97,91,62,30.00,29.91,14,3,19,1.07
2013-9-19,89.7,79.0,72.8,78.4,74.4,71.6,97,86,65,30.01,29.93,11,3,14,0.00
2013-9-20,89.8,80.6,73.5,75.8,72.5,68.9,96,78,58,30.00,29.87,14,4,15,0.00
2013-9-21,87.7,79.7,73.0,76.1,72.6,69.9,92,80,63,29.92,29.76,10,3,12,0.00
2013-9-22,88.6,81.2,74.8,78.1,75.8,73.3,96,84,67,29.85,29.76,11,2,15,0.00
2013-9-23,81.4,77.9,75.3,79.4,76.2,74.1,97,95,86,29.95,29.82,10,2,16,2.14
2013-9-24,84.8,76.3,72.0,80.4,74.7,70.2,98,95,76,29.94,29.87,15,2,23,1.15
2013-9-25,80.7,76.2,72.5,77.0,74.2,70.4,97,94,87,29.93,29.78,11,2,17,0.23
2013-9-26,87.3,81.5,75.8,81.0,77.7,72.6,96,88,75,29.86,29.79,20,6,27,0.04
2013-9-27,88.6,77.4,72.1,75.8,72.1,66.6,96,85,50,29.92,29.83,11,3,17,0.02
2013-9-28,90.8,78.9,71.5,76.4,72.3,69.4,95,81,55,29.96,29.86,20,5,24,0.01
2013-9-29,90.4,79.7,71.8,74.3,71.4,67.0,95,77,55,29.96,29.85,9,3,14,0.00
2013-9-30,89.2,80.2,72.4,76.6,73.1,70.3,95,80,61,29.99,29.87,9,2,14,0.00